Time;durP1;ratioP1;P1;durP2;ratioP2;P2;SDS_P1;SDS_P2;PMS_P1;PMS_P2;Temp;Humidity;BMP_temperature;BMP_pressure;BME280_temperature;BME280_humidity;BME280_pressure;Samples;Min_cycle;Max_cycle;Signal;HPM_P1;HPM_P2
2021/07/24 00:09:10;;;;;;;6.15;2.60;;;16.40;99.90;;;;;;20774794;28;20050;-48
2021/07/24 00:19:11;;;;;;;5.35;2.05;;;16.40;99.90;;;;;;20753157;28;20176;-48
2021/07/24 00:29:12;;;;;;;5.78;1.80;;;16.30;99.90;;;;;;20761378;28;20046;-48
2021/07/24 00:39:14;;;;;;;7.68;2.58;;;16.20;99.90;;;;;;20759808;28;20045;-48
2021/07/24 00:49:17;;;;;;;8.02;3.00;;;16.20;99.90;;;;;;20755523;28;20111;-48
2021/07/24 00:59:18;;;;;;;4.53;1.63;;;16.10;99.90;;;;;;20755805;28;20049;-48
2021/07/24 01:09:19;;;;;;;8.07;3.42;;;16.10;99.90;;;;;;20754974;28;20041;-48
2021/07/24 01:19:21;;;;;;;6.32;2.65;;;16.10;99.90;;;;;;20738674;28;20057;-48
2021/07/24 01:29:23;;;;;;;6.82;2.60;;;16.00;99.90;;;;;;20754112;28;20132;-48
2021/07/24 01:39:25;;;;;;;6.07;1.70;;;16.00;99.90;;;;;;20759737;28;20083;-48
2021/07/24 01:59:47;;;;;;;4.78;1.80;;;16.00;99.90;;;;;;20739872;28;20055;-48
2021/07/24 02:09:49;;;;;;;4.90;2.40;;;15.90;99.90;;;;;;20748038;28;20108;-48
2021/07/24 02:19:52;;;;;;;7.57;3.13;;;15.90;99.90;;;;;;20745426;28;20057;-48
2021/07/24 02:29:53;;;;;;;9.25;2.72;;;15.90;99.90;;;;;;20734543;28;20038;-48
2021/07/24 02:39:54;;;;;;;7.32;2.58;;;15.90;99.90;;;;;;20742433;28;20292;-48
2021/07/24 02:49:55;;;;;;;7.15;2.88;;;15.90;99.90;;;;;;20737386;28;20053;-48
2021/07/24 02:59:57;;;;;;;9.05;2.95;;;15.80;99.90;;;;;;20746159;28;20052;-48
2021/07/24 03:09:58;;;;;;;5.00;2.33;;;15.80;99.90;;;;;;20744120;28;20433;-47
2021/07/24 03:20:02;;;;;;;6.13;2.53;;;15.80;99.90;;;;;;20753070;28;20187;-47
2021/07/24 03:30:04;;;;;;;9.57;2.60;;;15.60;99.90;;;;;;20747914;28;20072;-47
2021/07/24 03:40:06;;;;;;;8.32;2.05;;;15.60;99.90;;;;;;20748801;28;20096;-47
2021/07/24 03:50:08;;;;;;;6.07;2.53;;;15.50;99.90;;;;;;20754028;28;20049;-47
2021/07/24 04:00:09;;;;;;;5.60;2.20;;;15.40;99.90;;;;;;20744259;28;20053;-48
2021/07/24 04:10:12;;;;;;;5.68;1.83;;;15.40;99.90;;;;;;20772737;28;20049;-49
2021/07/24 04:20:15;;;;;;;7.22;2.22;;;15.30;99.90;;;;;;20756675;28;20045;-47
2021/07/24 04:30:16;;;;;;;6.03;2.28;;;15.30;99.90;;;;;;20755582;28;20053;-48
2021/07/24 04:40:18;;;;;;;5.90;2.50;;;15.40;99.90;;;;;;20751350;28;20037;-47
2021/07/24 04:50:19;;;;;;;7.40;2.72;;;15.60;99.90;;;;;;20752848;28;20046;-48
2021/07/24 05:00:20;;;;;;;9.40;2.47;;;15.80;99.90;;;;;;20756605;28;20133;-54
2021/07/24 05:10:21;;;;;;;8.27;3.05;;;16.00;99.90;;;;;;20749629;28;20041;-47
2021/07/24 05:20:24;;;;;;;13.57;2.92;;;15.80;99.90;;;;;;20751313;28;20054;-47
2021/07/24 05:30:26;;;;;;;6.43;2.65;;;15.80;99.90;;;;;;20752845;28;20069;-48
2021/07/24 05:40:27;;;;;;;9.73;3.03;;;15.90;99.90;;;;;;20759981;28;20057;-48
2021/07/24 05:50:28;;;;;;;4.32;2.03;;;16.00;99.90;;;;;;20723592;28;20084;-47
2021/07/24 06:00:29;;;;;;;7.20;2.88;;;16.30;99.90;;;;;;20741309;28;20048;-47
2021/07/24 06:10:31;;;;;;;6.40;2.17;;;16.80;99.90;;;;;;20744836;28;20587;-47
2021/07/24 06:20:37;;;;;;;7.32;2.75;;;17.10;99.90;;;;;;20735872;28;20073;-48
2021/07/24 06:30:39;;;;;;;6.72;2.42;;;17.10;99.90;;;;;;20734984;28;20123;-48
2021/07/24 06:40:40;;;;;;;5.72;2.38;;;17.30;99.90;;;;;;20755458;28;20049;-48
2021/07/24 06:50:42;;;;;;;7.80;2.90;;;17.20;99.90;;;;;;20749118;28;20103;-48
2021/07/24 07:00:43;;;;;;;5.57;2.50;;;17.60;99.90;;;;;;20741277;28;20125;-47
2021/07/24 07:10:44;;;;;;;8.13;3.33;;;17.80;99.90;;;;;;20742124;28;20046;-47
2021/07/24 07:20:47;;;;;;;6.63;2.90;;;18.10;99.90;;;;;;20768234;28;20334;-47
2021/07/24 07:30:48;;;;;;;4.90;2.45;;;18.30;99.90;;;;;;20769407;28;20144;-48
2021/07/24 07:40:49;;;;;;;7.88;2.97;;;18.40;99.90;;;;;;20768807;28;20049;-47
2021/07/24 07:50:52;;;;;;;5.22;2.10;;;18.70;99.90;;;;;;20718037;28;20064;-48
2021/07/24 08:00:54;;;;;;;4.88;2.05;;;19.00;99.90;;;;;;20731521;28;20068;-48
2021/07/24 08:10:55;;;;;;;3.83;2.63;;;19.20;99.90;;;;;;20737485;28;20060;-47
2021/07/24 08:20:56;;;;;;;5.10;2.38;;;19.40;99.90;;;;;;20737572;28;20063;-49
2021/07/24 08:30:59;;;;;;;5.10;2.08;;;19.50;99.90;;;;;;20749343;28;20196;-49
2021/07/24 08:41:00;;;;;;;5.00;2.03;;;19.70;99.90;;;;;;20733496;28;20470;-50
2021/07/24 08:51:02;;;;;;;5.93;2.10;;;19.80;99.90;;;;;;20735873;28;20056;-49
2021/07/24 09:01:04;;;;;;;4.97;2.38;;;20.10;99.90;;;;;;20770260;28;20042;-50
2021/07/24 09:11:07;;;;;;;5.70;2.25;;;20.50;99.90;;;;;;20731170;28;20048;-50
2021/07/24 09:21:08;;;;;;;6.28;2.50;;;20.60;99.90;;;;;;20742061;28;20101;-50
2021/07/24 09:31:22;;;;;;;7.55;2.78;;;20.70;99.90;;;;;;20732680;28;20045;-49
2021/07/24 09:41:24;;;;;;;5.85;2.70;;;21.10;99.90;;;;;;20747572;28;20443;-49
2021/07/24 09:51:32;;;;;;;4.53;2.00;;;21.20;99.90;;;;;;20759693;28;20133;-50
2021/07/24 10:01:35;;;;;;;5.07;2.28;;;21.30;99.90;;;;;;20719512;28;20125;-50
2021/07/24 10:11:36;;;;;;;6.07;2.20;;;21.40;99.90;;;;;;20744536;28;20050;-49
2021/07/24 10:21:37;;;;;;;5.75;2.40;;;21.40;99.90;;;;;;20719679;28;20097;-50
2021/07/24 10:31:52;;;;;;;6.15;2.35;;;22.00;99.90;;;;;;20689128;28;20116;-50
2021/07/24 10:41:59;;;;;;;7.13;2.60;;;22.20;99.90;;;;;;20681352;28;20046;-50
2021/07/24 10:52:11;;;;;;;6.87;2.30;;;22.20;99.90;;;;;;20704049;28;20258;-49
2021/07/24 11:02:14;;;;;;;6.45;2.60;;;22.10;99.90;;;;;;20703392;28;20045;-50
2021/07/24 11:12:16;;;;;;;5.95;2.67;;;21.80;99.90;;;;;;20698635;28;20151;-49
2021/07/24 11:22:23;;;;;;;6.88;2.55;;;21.70;99.90;;;;;;20702209;28;20328;-50
2021/07/24 11:32:29;;;;;;;7.93;2.67;;;21.90;99.90;;;;;;20738171;28;20179;-50
2021/07/24 11:42:30;;;;;;;13.07;2.83;;;21.90;99.90;;;;;;20769342;28;20661;-50
2021/07/24 11:52:32;;;;;;;5.45;2.60;;;22.00;99.90;;;;;;20756984;28;20092;-50
2021/07/24 12:02:34;;;;;;;5.50;2.70;;;21.80;99.90;;;;;;20745318;28;20049;-50
2021/07/24 12:12:35;;;;;;;6.35;3.03;;;21.80;99.90;;;;;;20742411;28;20516;-50
2021/07/24 12:22:37;;;;;;;6.50;3.03;;;21.80;99.90;;;;;;20734842;28;20046;-50
2021/07/24 12:32:39;;;;;;;6.40;2.33;;;21.80;99.90;;;;;;20742804;28;20385;-50
2021/07/24 12:42:41;;;;;;;4.85;2.67;;;21.90;99.90;;;;;;20732769;28;20063;-50
2021/07/24 12:52:47;;;;;;;7.30;2.72;;;22.00;99.90;;;;;;20722094;28;20497;-48
2021/07/24 13:02:49;;;;;;;5.45;2.80;;;22.10;99.90;;;;;;20728169;28;20056;-48
2021/07/24 13:12:50;;;;;;;7.53;3.15;;;22.10;99.90;;;;;;20740630;28;20041;-48
2021/07/24 13:22:51;;;;;;;7.95;3.15;;;22.00;99.90;;;;;;20740813;28;20042;-48
2021/07/24 13:32:55;;;;;;;6.18;2.50;;;21.90;99.90;;;;;;20740617;28;20139;-48
2021/07/24 13:43:00;;;;;;;7.80;3.10;;;22.00;99.90;;;;;;20720606;28;20512;-48
2021/07/24 13:53:02;;;;;;;6.50;2.63;;;22.40;99.90;;;;;;20719563;28;20803;-50
2021/07/24 14:03:04;;;;;;;8.07;3.88;;;22.90;99.90;;;;;;20734591;28;20200;-49
2021/07/24 14:13:08;;;;;;;6.07;3.35;;;23.20;99.90;;;;;;20727539;28;20522;-48
2021/07/24 14:23:10;;;;;;;10.48;3.65;;;23.20;99.90;;;;;;20728154;28;20437;-49
2021/07/24 14:33:12;;;;;;;10.05;4.20;;;23.20;99.90;;;;;;20734420;28;20644;-49
2021/07/24 14:43:13;;;;;;;8.23;3.92;;;23.10;99.90;;;;;;20729392;28;20081;-49
2021/07/24 14:53:14;;;;;;;10.95;5.20;;;22.80;99.90;;;;;;20741593;28;20060;-49
2021/07/24 15:03:15;;;;;;;10.45;4.50;;;22.70;99.90;;;;;;20743670;28;20437;-49
2021/07/24 15:13:18;;;;;;;11.98;5.18;;;22.40;99.90;;;;;;20752685;28;20448;-50
2021/07/24 15:23:20;;;;;;;13.23;5.25;;;22.40;99.90;;;;;;20707088;28;20416;-50
2021/07/24 15:33:25;;;;;;;13.73;6.10;;;22.20;99.90;;;;;;20743875;28;20681;-50
2021/07/24 15:43:26;;;;;;;7.85;4.10;;;21.80;99.90;;;;;;20736666;28;20323;-50
2021/07/24 15:53:27;;;;;;;12.75;5.82;;;21.60;99.90;;;;;;20733501;28;20080;-49
2021/07/24 16:03:29;;;;;;;14.63;6.57;;;21.60;99.90;;;;;;20720970;28;20627;-50
2021/07/24 16:13:30;;;;;;;12.45;6.28;;;21.50;99.90;;;;;;20731110;28;20683;-49
2021/07/24 16:23:32;;;;;;;13.88;6.78;;;21.40;99.90;;;;;;20726888;28;20033;-49
2021/07/24 16:33:34;;;;;;;15.57;6.57;;;21.40;99.90;;;;;;20733791;28;20509;-49
2021/07/24 16:43:35;;;;;;;14.20;6.45;;;21.30;99.90;;;;;;20727929;28;20403;-50
2021/07/24 16:53:40;;;;;;;10.23;4.63;;;21.30;99.90;;;;;;20720361;28;20038;-50
2021/07/24 17:03:42;;;;;;;10.50;6.03;;;21.50;99.90;;;;;;20704162;28;20062;-49
2021/07/24 17:13:44;;;;;;;14.68;5.50;;;21.50;99.90;;;;;;20724288;28;20397;-50
2021/07/24 17:23:45;;;;;;;11.07;5.32;;;21.50;99.90;;;;;;20722333;28;20504;-49
2021/07/24 17:33:47;;;;;;;8.45;4.05;;;21.50;99.90;;;;;;20713963;28;20441;-49
2021/07/24 17:43:48;;;;;;;11.80;5.20;;;21.30;99.90;;;;;;20710081;28;20491;-50
2021/07/24 17:53:56;;;;;;;12.07;4.90;;;21.50;99.90;;;;;;20687430;28;20527;-49
2021/07/24 18:03:57;;;;;;;10.38;4.65;;;21.50;99.90;;;;;;20723075;28;20414;-50
2021/07/24 18:13:58;;;;;;;11.18;4.97;;;21.50;99.90;;;;;;20721506;28;21202;-49
2021/07/24 18:24:00;;;;;;;9.48;4.70;;;21.30;99.90;;;;;;20716349;28;20512;-50
2021/07/24 18:34:01;;;;;;;7.30;4.18;;;21.30;99.90;;;;;;20722328;28;20496;-49
2021/07/24 18:44:02;;;;;;;8.63;4.50;;;21.10;99.90;;;;;;20721341;28;20504;-50
2021/07/24 18:54:03;;;;;;;10.57;5.18;;;20.90;99.90;;;;;;20710980;28;20045;-49
2021/07/24 19:04:04;;;;;;;15.68;5.32;;;20.90;99.90;;;;;;20714683;28;20640;-49
2021/07/24 19:14:06;;;;;;;10.10;5.15;;;20.90;99.90;;;;;;20727719;28;20516;-49
2021/07/24 19:24:07;;;;;;;11.27;4.10;;;20.90;99.90;;;;;;20735348;28;20501;-49
2021/07/24 19:34:08;;;;;;;12.25;4.93;;;20.70;99.90;;;;;;20734840;28;20493;-49
2021/07/24 19:44:10;;;;;;;9.40;3.53;;;20.70;99.90;;;;;;20739837;28;20504;-49
2021/07/24 19:54:11;;;;;;;10.15;4.20;;;20.60;99.90;;;;;;20744737;28;20409;-49
2021/07/24 20:04:12;;;;;;;9.50;4.50;;;20.50;99.90;;;;;;20746868;28;20575;-49
2021/07/24 20:14:13;;;;;;;11.07;5.25;;;20.30;99.90;;;;;;20741126;28;20502;-49
2021/07/24 20:24:14;;;;;;;10.55;4.18;;;20.30;99.90;;;;;;20741674;28;20517;-49
2021/07/24 20:34:17;;;;;;;10.05;4.68;;;20.10;99.90;;;;;;20738774;28;20493;-49
2021/07/24 20:44:18;;;;;;;8.88;4.28;;;20.00;99.90;;;;;;20730731;28;20516;-49
2021/07/24 20:54:19;;;;;;;7.72;4.28;;;19.90;99.90;;;;;;20713813;28;20520;-49
2021/07/24 21:04:21;;;;;;;12.20;5.28;;;19.70;99.90;;;;;;20730050;28;20505;-48
2021/07/24 21:14:22;;;;;;;12.93;5.65;;;19.50;99.90;;;;;;20725114;28;20506;-50
2021/07/24 21:24:24;;;;;;;11.32;6.03;;;19.30;99.90;;;;;;20722690;28;20504;-50
2021/07/24 21:34:25;;;;;;;14.27;6.63;;;19.20;99.90;;;;;;20724119;28;20523;-48
2021/07/24 21:44:26;;;;;;;14.23;5.72;;;19.10;99.90;;;;;;20736715;28;20429;-48
2021/07/24 21:54:27;;;;;;;12.93;7.05;;;19.10;99.90;;;;;;20722936;28;20521;-50
2021/07/24 22:04:29;;;;;;;13.75;6.05;;;19.00;99.90;;;;;;20729344;28;20057;-49
2021/07/24 22:14:30;;;;;;;14.52;6.22;;;18.90;99.90;;;;;;20722750;28;20591;-49
2021/07/24 22:24:35;;;;;;;13.82;6.20;;;18.80;99.90;;;;;;20729237;28;20368;-48
2021/07/24 22:34:37;;;;;;;14.20;6.82;;;18.70;99.90;;;;;;20728316;28;20077;-50
2021/07/24 22:44:38;;;;;;;14.50;6.75;;;18.50;99.90;;;;;;20734340;28;20503;-48
2021/07/24 22:54:40;;;;;;;16.77;7.50;;;18.40;99.90;;;;;;20734917;28;20128;-50
2021/07/24 23:04:41;;;;;;;16.52;8.25;;;18.30;99.90;;;;;;20726933;28;20505;-48
2021/07/24 23:14:42;;;;;;;17.40;7.32;;;18.30;99.90;;;;;;20750803;28;20624;-48
2021/07/24 23:24:43;;;;;;;14.52;7.07;;;18.40;99.90;;;;;;20743257;28;20512;-50
2021/07/24 23:34:46;;;;;;;14.05;7.28;;;18.30;99.90;;;;;;20743398;28;20695;-49
2021/07/24 23:44:48;;;;;;;14.40;6.30;;;18.30;99.90;;;;;;20742079;28;20057;-48
2021/07/24 23:54:49;;;;;;;19.00;8.63;;;18.10;99.90;;;;;;20714915;28;20733;-48
